createdAt,value
2018-06-09T00:00:36.727Z,19.42
2018-06-09T00:03:06.088Z,19.51
2018-06-09T00:05:34.755Z,19.43
2018-06-09T00:08:04.125Z,19.21
2018-06-09T00:10:33.398Z,19.25
2018-06-09T00:13:02.625Z,19.06
2018-06-09T00:15:31.952Z,18.95
2018-06-09T00:18:01.309Z,18.78
2018-06-09T00:20:30.519Z,18.72
2018-06-09T00:22:59.885Z,18.51
2018-06-09T00:25:29.090Z,18.45
2018-06-09T00:27:58.280Z,18.32
2018-06-09T00:30:26.593Z,18.23
2018-06-09T00:32:55.824Z,18.20
2018-06-09T00:35:24.168Z,18.12
2018-06-09T00:37:53.384Z,18.19
2018-06-09T00:40:22.579Z,18.21
2018-06-09T00:42:51.793Z,18.04
2018-06-09T00:45:20.960Z,17.94
2018-06-09T00:47:50.288Z,17.85
2018-06-09T00:50:19.497Z,17.80
2018-06-09T00:52:48.708Z,17.86
2018-06-09T00:55:17.032Z,17.82
2018-06-09T00:57:46.344Z,17.92
2018-06-09T01:00:14.659Z,17.96
2018-06-09T01:02:42.979Z,17.91
2018-06-09T01:05:12.184Z,17.86
2018-06-09T01:07:41.452Z,17.80
2018-06-09T01:10:10.769Z,17.77
2018-06-09T01:12:40.121Z,17.68
2018-06-09T01:15:09.305Z,17.87
2018-06-09T01:17:38.660Z,17.80
2018-06-09T01:20:07.969Z,17.83
2018-06-09T01:22:36.274Z,17.81
2018-06-09T01:25:05.724Z,17.84
2018-06-09T01:27:34.059Z,17.70
2018-06-09T01:30:02.386Z,17.65
2018-06-09T01:32:30.711Z,17.59
2018-06-09T01:34:59.021Z,17.64
2018-06-09T01:37:28.348Z,17.46
2018-06-09T01:39:56.661Z,17.44
2018-06-09T01:42:24.972Z,17.29
2018-06-09T01:44:53.288Z,17.25
2018-06-09T01:47:21.605Z,17.14
2018-06-09T01:49:50.916Z,17.05
2018-06-09T01:52:20.238Z,16.98
2018-06-09T01:54:49.548Z,16.95
2018-06-09T01:57:18.873Z,16.94
2018-06-09T01:59:48.227Z,17.03
2018-06-09T02:02:16.580Z,17.13
2018-06-09T02:04:45.773Z,17.11
2018-06-09T02:07:14.091Z,16.99
2018-06-09T02:09:43.422Z,16.88
2018-06-09T02:12:12.969Z,16.89
2018-06-09T02:14:42.180Z,16.82
2018-06-09T02:17:10.496Z,16.84
2018-06-09T02:19:38.817Z,16.87
2018-06-09T02:22:07.132Z,16.96
2018-06-09T02:24:36.488Z,16.85
2018-06-09T02:27:04.881Z,16.98
2018-06-09T02:29:34.278Z,16.97
2018-06-09T02:32:02.713Z,16.87
2018-06-09T02:34:31.025Z,16.93
2018-06-09T02:36:59.332Z,17.06
2018-06-09T02:39:27.642Z,16.90
2018-06-09T02:41:56.837Z,16.89
2018-06-09T02:44:26.188Z,16.81
2018-06-09T02:46:54.555Z,16.72
2018-06-09T02:49:23.745Z,16.73
2018-06-09T02:51:52.098Z,16.78
2018-06-09T02:54:21.299Z,16.78
2018-06-09T02:56:49.641Z,16.70
2018-06-09T02:59:18.884Z,16.67
2018-06-09T03:01:47.197Z,16.62
2018-06-09T03:04:16.541Z,16.75
2018-06-09T03:06:45.893Z,16.71
2018-06-09T03:09:15.054Z,16.52
2018-06-09T03:11:44.269Z,16.46
2018-06-09T03:14:13.449Z,16.44
2018-06-09T03:16:42.672Z,16.45
2018-06-09T03:19:10.986Z,16.41
2018-06-09T03:21:40.353Z,16.34
2018-06-09T03:24:09.680Z,16.30
2018-06-09T03:26:39.003Z,16.26
2018-06-09T03:29:07.451Z,16.23
2018-06-09T03:31:36.637Z,16.29
2018-06-09T03:34:05.834Z,16.30
2018-06-09T03:36:35.157Z,16.37
2018-06-09T03:39:04.400Z,16.31
2018-06-09T03:41:33.587Z,16.42
2018-06-09T03:44:01.928Z,16.32
2018-06-09T03:46:30.286Z,16.36
2018-06-09T03:48:58.629Z,16.32
2018-06-09T03:51:27.980Z,16.37
2018-06-09T03:53:56.359Z,16.39
2018-06-09T03:56:24.713Z,16.40
2018-06-09T03:58:53.072Z,16.36
2018-06-09T04:01:21.377Z,16.50
2018-06-09T04:03:49.725Z,16.65
2018-06-09T04:06:19.098Z,16.69
2018-06-09T04:08:47.455Z,16.80
2018-06-09T04:11:16.789Z,16.90
2018-06-09T04:13:45.153Z,17.17
2018-06-09T04:16:14.348Z,17.28
2018-06-09T04:18:42.676Z,17.29
2018-06-09T04:21:11.997Z,17.32
2018-06-09T04:23:41.304Z,17.21
2018-06-09T04:26:09.609Z,17.16
2018-06-09T04:28:38.616Z,17.11
2018-06-09T04:31:07.982Z,17.31
2018-06-09T04:33:37.311Z,17.20
2018-06-09T04:36:06.502Z,17.19
2018-06-09T04:38:34.821Z,17.21
2018-06-09T04:41:03.140Z,17.66
2018-06-09T04:43:31.468Z,17.79
2018-06-09T04:45:59.795Z,17.85
2018-06-09T04:48:28.142Z,17.77
2018-06-09T04:50:56.453Z,18.14
2018-06-09T04:53:24.773Z,18.06
2018-06-09T04:55:53.086Z,18.17
2018-06-09T04:58:21.400Z,18.17
2018-06-09T05:00:49.714Z,18.13
2018-06-09T05:03:18.054Z,18.42
2018-06-09T05:05:46.384Z,18.31
2018-06-09T05:08:14.704Z,18.30
2018-06-09T05:10:43.041Z,18.38
2018-06-09T05:13:11.408Z,18.58
2018-06-09T05:15:39.720Z,18.61
2018-06-09T05:18:08.045Z,18.68
2018-06-09T05:20:36.379Z,18.90
2018-06-09T05:23:04.729Z,18.95
2018-06-09T05:25:33.040Z,19.03
2018-06-09T05:28:01.928Z,19.21
2018-06-09T05:30:31.075Z,19.35
2018-06-09T05:32:59.402Z,19.54
2018-06-09T05:35:27.721Z,19.48
2018-06-09T05:37:56.085Z,19.61
2018-06-09T05:40:24.408Z,19.98
2018-06-09T05:42:52.738Z,20.12
2018-06-09T05:45:21.050Z,20.28
2018-06-09T05:47:49.360Z,20.38
2018-06-09T05:50:17.715Z,20.66
2018-06-09T05:52:46.043Z,20.87
2018-06-09T05:55:14.353Z,20.94
2018-06-09T05:57:42.668Z,21.17
2018-06-09T06:00:12.023Z,21.29
2018-06-09T06:02:41.218Z,21.33
2018-06-09T06:05:10.544Z,21.37
2018-06-09T06:07:38.856Z,21.64
2018-06-09T06:10:08.066Z,21.87
2018-06-09T06:12:37.455Z,21.96
2018-06-09T06:15:05.785Z,22.05
2018-06-09T06:17:34.097Z,22.08
2018-06-09T06:20:02.406Z,22.20
2018-06-09T06:22:30.724Z,22.37
2018-06-09T06:24:59.047Z,22.52
2018-06-09T06:27:27.360Z,22.72
2018-06-09T06:29:55.768Z,22.91
2018-06-09T06:34:51.462Z,23.13
2018-06-09T06:37:19.866Z,23.33
2018-06-09T06:39:48.215Z,23.41
2018-06-09T06:42:25.079Z,23.29
2018-06-09T06:44:53.825Z,23.47
2018-06-09T06:47:22.262Z,23.61
2018-06-09T06:49:50.578Z,23.85
2018-06-09T06:52:18.892Z,23.96
2018-06-09T06:54:48.227Z,24.01
2018-06-09T06:57:17.329Z,23.89
2018-06-09T06:59:45.649Z,24.02
2018-06-09T07:02:14.025Z,24.08
2018-06-09T07:04:42.342Z,24.17
2018-06-09T07:07:10.812Z,24.12
2018-06-09T07:09:39.137Z,24.29
2018-06-09T07:12:08.249Z,24.23
2018-06-09T07:14:36.569Z,24.30
2018-06-09T07:17:04.896Z,24.30
2018-06-09T07:19:33.214Z,24.33
2018-06-09T07:22:01.572Z,24.55
2018-06-09T07:24:29.885Z,24.62
2018-06-09T07:26:58.248Z,24.60
2018-06-09T07:29:26.665Z,24.88
2018-06-09T07:31:55.853Z,24.97
2018-06-09T07:34:24.174Z,25.17
2018-06-09T07:36:52.528Z,25.14
2018-06-09T07:39:21.633Z,25.10
2018-06-09T07:41:50.885Z,25.26
2018-06-09T07:44:19.200Z,25.29
2018-06-09T07:46:47.509Z,25.63
2018-06-09T07:49:15.826Z,25.64
2018-06-09T07:51:44.180Z,25.82
2018-06-09T07:54:12.549Z,25.95
2018-06-09T07:56:40.905Z,25.98
2018-06-09T07:59:09.213Z,26.19
2018-06-09T08:01:37.558Z,26.32
2018-06-09T08:04:05.870Z,26.38
2018-06-09T08:06:34.212Z,26.51
2018-06-09T08:09:02.544Z,26.60
2018-06-09T08:11:30.837Z,26.62
2018-06-09T08:13:59.223Z,26.78
2018-06-09T08:16:28.547Z,26.73
2018-06-09T08:18:56.850Z,26.96
2018-06-09T08:21:25.161Z,26.90
2018-06-09T08:23:53.497Z,26.84
2018-06-09T08:26:22.688Z,26.90
2018-06-09T08:28:51.024Z,27.04
2018-06-09T08:31:20.205Z,27.05
2018-06-09T08:33:48.507Z,27.17
2018-06-09T08:36:16.817Z,27.27
2018-06-09T08:38:45.148Z,27.48
2018-06-09T08:41:13.465Z,27.72
2018-06-09T08:43:41.761Z,27.86
2018-06-09T08:46:10.063Z,28.07
2018-06-09T08:48:40.377Z,28.11
2018-06-09T08:51:08.677Z,28.16
2018-06-09T08:53:36.977Z,28.03
2018-06-09T08:56:05.286Z,28.00
2018-06-09T08:58:33.600Z,27.92
2018-06-09T09:01:01.905Z,28.05
2018-06-09T09:03:30.212Z,28.37
2018-06-09T09:05:58.528Z,28.57
2018-06-09T09:08:26.864Z,28.83
2018-06-09T09:10:55.172Z,28.85
2018-06-09T09:13:23.657Z,28.85
2018-06-09T09:15:51.957Z,28.68
2018-06-09T09:18:20.264Z,28.28
2018-06-09T09:20:48.583Z,28.27
2018-06-09T09:23:17.783Z,28.33
2018-06-09T09:25:46.085Z,28.67
2018-06-09T09:28:14.388Z,29.08
2018-06-09T09:30:42.730Z,29.24
2018-06-09T09:33:11.065Z,29.27
2018-06-09T09:35:39.412Z,29.32
2018-06-09T09:38:08.720Z,29.22
2018-06-09T09:40:37.033Z,29.66
2018-06-09T09:43:06.341Z,30.02
2018-06-09T09:45:34.654Z,29.99
2018-06-09T09:48:03.911Z,29.99
2018-06-09T09:50:32.224Z,29.66
2018-06-09T09:53:01.392Z,29.40
2018-06-09T09:55:29.698Z,28.98
2018-06-09T09:58:00.140Z,28.76
2018-06-09T10:00:33.713Z,28.78
2018-06-09T10:03:03.065Z,29.00
2018-06-09T10:05:32.377Z,29.35
2018-06-09T10:08:01.597Z,29.82
2018-06-09T10:10:30.974Z,30.05
2018-06-09T10:12:59.277Z,30.14
2018-06-09T10:15:27.614Z,29.95
2018-06-09T10:17:56.925Z,30.36
2018-06-09T10:20:26.125Z,30.54
2018-06-09T10:22:55.248Z,30.54
2018-06-09T10:25:24.509Z,30.58
2018-06-09T10:27:53.736Z,30.76
2018-06-09T10:30:23.030Z,31.04
2018-06-09T10:32:51.395Z,31.00
2018-06-09T10:35:20.704Z,30.68
2018-06-09T10:37:50.036Z,30.52
2018-06-09T10:40:19.216Z,30.72
2018-06-09T10:42:48.388Z,30.47
2018-06-09T10:45:17.628Z,30.61
2018-06-09T10:47:46.948Z,30.63
2018-06-09T10:50:16.125Z,30.63
2018-06-09T10:52:44.473Z,30.89
2018-06-09T10:55:13.662Z,31.02
2018-06-09T10:57:42.016Z,31.16
2018-06-09T11:00:11.429Z,30.92
2018-06-09T11:02:39.777Z,30.69
2018-06-09T11:05:09.057Z,30.49
2018-06-09T11:07:37.372Z,30.91
2018-06-09T11:10:05.899Z,31.17
2018-06-09T11:12:35.095Z,31.15
2018-06-09T11:15:04.339Z,30.74
2018-06-09T11:17:33.591Z,30.80
2018-06-09T11:20:02.941Z,31.08
2018-06-09T11:22:31.307Z,31.13
2018-06-09T11:25:00.528Z,30.94
2018-06-09T11:27:29.831Z,31.07
2018-06-09T11:29:58.144Z,30.73
2018-06-09T11:32:26.461Z,30.50
2018-06-09T11:34:54.774Z,30.24
2018-06-09T11:37:23.097Z,30.36
2018-06-09T11:39:51.417Z,30.39
2018-06-09T11:42:19.724Z,30.23
2018-06-09T11:44:48.032Z,30.28
2018-06-09T11:47:16.340Z,30.65
2018-06-09T11:49:44.649Z,31.12
2018-06-09T11:52:12.961Z,31.26
2018-06-09T11:54:41.281Z,31.52
2018-06-09T11:57:09.857Z,31.21
2018-06-09T11:59:42.797Z,30.96
2018-06-09T12:02:11.162Z,30.96
2018-06-09T12:04:39.480Z,31.06
2018-06-09T12:07:07.794Z,30.82
2018-06-09T12:09:36.139Z,30.53
2018-06-09T12:12:04.465Z,30.50
2018-06-09T12:14:33.789Z,30.54
2018-06-09T12:17:02.966Z,30.58
2018-06-09T12:19:32.185Z,30.78
2018-06-09T12:22:01.383Z,30.91
2018-06-09T12:24:29.690Z,31.19
2018-06-09T12:26:58.065Z,31.31
2018-06-09T12:29:26.372Z,31.89
2018-06-09T12:31:54.713Z,32.28
2018-06-09T12:34:23.041Z,32.85
2018-06-09T12:36:51.353Z,32.81
2018-06-09T12:39:19.686Z,32.75
2018-06-09T12:41:48.025Z,32.52
2018-06-09T12:44:16.371Z,32.32
2018-06-09T12:46:44.721Z,32.51
2018-06-09T12:49:13.036Z,32.19
2018-06-09T12:51:41.390Z,32.33
2018-06-09T12:54:09.751Z,32.11
2018-06-09T12:56:38.956Z,32.09
2018-06-09T12:59:07.279Z,32.24
2018-06-09T13:01:35.594Z,32.30
2018-06-09T13:04:03.948Z,32.76
2018-06-09T13:06:32.288Z,32.52
2018-06-09T13:09:00.644Z,32.72
2018-06-09T13:11:29.009Z,32.68
2018-06-09T13:13:57.417Z,32.77
2018-06-09T13:16:25.722Z,32.54
2018-06-09T13:18:54.039Z,32.71
2018-06-09T13:21:22.360Z,32.76
2018-06-09T13:23:51.568Z,32.39
2018-06-09T13:26:20.900Z,31.93
2018-06-09T13:28:49.216Z,32.12
2018-06-09T13:31:17.545Z,32.56
2018-06-09T13:33:45.898Z,32.79
2018-06-09T13:36:14.214Z,32.93
2018-06-09T13:38:42.622Z,32.84
2018-06-09T13:41:11.812Z,32.62
2018-06-09T13:43:41.044Z,32.82
2018-06-09T13:46:10.157Z,32.82
2018-06-09T13:48:39.520Z,32.76
2018-06-09T13:51:08.888Z,32.54
2018-06-09T13:53:38.209Z,32.47
2018-06-09T13:56:06.566Z,32.26
2018-06-09T13:58:35.880Z,32.49
2018-06-09T14:01:05.236Z,32.44
2018-06-09T14:03:33.548Z,32.37
2018-06-09T14:06:03.725Z,32.61
2018-06-09T14:08:33.028Z,32.88
2018-06-09T14:11:02.232Z,33.21
2018-06-09T14:13:31.553Z,33.80
2018-06-09T14:16:00.856Z,33.56
2018-06-09T14:18:30.217Z,33.48
2018-06-09T14:20:58.537Z,33.41
2018-06-09T14:23:27.717Z,32.85
2018-06-09T14:25:56.048Z,32.80
2018-06-09T14:28:24.367Z,32.78
2018-06-09T14:30:52.685Z,32.82
2018-06-09T14:33:21.016Z,32.85
2018-06-09T14:35:53.303Z,33.01
2018-06-09T14:38:21.614Z,33.42
2018-06-09T14:40:50.789Z,34.03
2018-06-09T14:43:19.104Z,34.63
2018-06-09T14:45:47.430Z,35.07
2018-06-09T14:48:15.751Z,34.54
2018-06-09T14:50:44.074Z,34.63
2018-06-09T14:53:12.400Z,35.43
2018-06-09T14:55:40.713Z,35.70
2018-06-09T14:58:09.029Z,35.33
2018-06-09T15:00:37.335Z,35.25
2018-06-09T15:03:05.652Z,36.29
2018-06-09T15:05:33.980Z,36.41
2018-06-09T15:08:02.336Z,35.62
2018-06-09T15:10:30.665Z,36.54
2018-06-09T15:12:58.969Z,37.05
2018-06-09T15:15:27.328Z,37.22
2018-06-09T15:17:55.636Z,37.39
2018-06-09T15:20:23.964Z,37.46
2018-06-09T15:22:52.280Z,37.92
2018-06-09T15:25:20.595Z,36.69
2018-06-09T15:27:48.910Z,37.41
2018-06-09T15:30:17.227Z,36.82
2018-06-09T15:32:45.551Z,36.96
2018-06-09T15:35:13.915Z,36.20
2018-06-09T15:37:42.220Z,35.79
2018-06-09T15:40:10.549Z,35.82
2018-06-09T15:42:38.861Z,35.88
2018-06-09T15:45:07.174Z,35.29
2018-06-09T15:47:35.484Z,34.45
2018-06-09T15:50:03.853Z,33.72
2018-06-09T15:52:32.175Z,33.42
2018-06-09T15:55:00.496Z,33.05
2018-06-09T15:57:28.820Z,32.69
2018-06-09T15:59:58.096Z,32.14
2018-06-09T16:02:26.853Z,31.91
2018-06-09T16:04:55.188Z,31.72
2018-06-09T16:07:23.545Z,31.58
2018-06-09T16:09:51.906Z,31.54
2018-06-09T16:12:20.218Z,31.45
2018-06-09T16:14:48.633Z,31.27
2018-06-09T16:17:16.930Z,31.03
2018-06-09T16:19:45.250Z,30.81
2018-06-09T16:22:14.394Z,30.62
2018-06-09T16:24:42.753Z,30.68
2018-06-09T16:27:11.065Z,30.60
2018-06-09T16:29:39.372Z,30.39
2018-06-09T16:32:07.681Z,30.40
2018-06-09T16:34:35.999Z,30.35
2018-06-09T16:37:04.304Z,30.23
2018-06-09T16:39:32.614Z,30.15
2018-06-09T16:42:00.925Z,30.10
2018-06-09T16:44:29.232Z,29.98
2018-06-09T16:46:57.546Z,29.93
2018-06-09T16:49:25.863Z,29.96
2018-06-09T16:51:54.206Z,29.96
2018-06-09T16:54:22.518Z,29.95
2018-06-09T16:56:51.699Z,29.87
2018-06-09T16:59:20.020Z,29.71
2018-06-09T17:01:48.339Z,29.72
2018-06-09T17:04:16.652Z,29.66
2018-06-09T17:06:44.973Z,29.62
2018-06-09T17:09:14.336Z,29.39
2018-06-09T17:11:42.653Z,29.10
2018-06-09T17:14:10.974Z,28.85
2018-06-09T17:16:39.286Z,28.17
2018-06-09T17:19:07.597Z,27.70
2018-06-09T17:21:35.914Z,27.50
2018-06-09T17:24:04.238Z,27.33
2018-06-09T17:26:33.552Z,27.27
2018-06-09T17:29:02.913Z,27.01
2018-06-09T17:31:32.238Z,26.87
2018-06-09T17:34:01.545Z,26.85
2018-06-09T17:36:30.880Z,26.75
2018-06-09T17:39:00.109Z,26.62
2018-06-09T17:41:29.429Z,26.30
2018-06-09T17:43:57.807Z,26.35
2018-06-09T17:46:26.128Z,26.09
2018-06-09T17:48:55.306Z,25.95
2018-06-09T17:51:23.621Z,25.78
2018-06-09T17:53:51.940Z,25.74
2018-06-09T17:56:21.155Z,25.65
2018-06-09T17:58:50.360Z,25.54
2018-06-09T18:01:18.677Z,25.37
2018-06-09T18:03:47.063Z,25.27
2018-06-09T18:06:16.269Z,25.29
2018-06-09T18:08:44.576Z,25.22
2018-06-09T18:11:12.920Z,25.14
2018-06-09T18:13:42.110Z,25.07
2018-06-09T18:16:10.421Z,25.01
2018-06-09T18:18:38.723Z,25.04
2018-06-09T18:21:07.037Z,24.92
2018-06-09T18:23:36.241Z,24.81
2018-06-09T18:26:04.568Z,24.75
2018-06-09T18:28:32.870Z,24.61
2018-06-09T18:31:02.088Z,24.58
2018-06-09T18:33:30.436Z,24.53
2018-06-09T18:35:59.630Z,24.41
2018-06-09T18:38:27.945Z,24.30
2018-06-09T18:40:57.260Z,24.25
2018-06-09T18:43:26.574Z,24.21
2018-06-09T18:45:55.708Z,24.18
2018-06-09T18:48:24.892Z,24.05
2018-06-09T18:50:54.154Z,23.90
2018-06-09T18:53:23.341Z,23.82
2018-06-09T18:55:51.709Z,23.72
2018-06-09T18:58:20.020Z,23.61
2018-06-09T19:00:49.293Z,23.50
2018-06-09T19:03:18.528Z,23.38
2018-06-09T19:05:46.873Z,23.29
2018-06-09T19:08:16.056Z,23.28
2018-06-09T19:10:44.373Z,23.26
2018-06-09T19:13:13.695Z,23.17
2018-06-09T19:15:43.006Z,23.27
2018-06-09T19:18:12.340Z,23.10
2018-06-09T19:20:40.700Z,23.02
2018-06-09T19:23:09.888Z,22.95
2018-06-09T19:25:39.211Z,22.80
2018-06-09T19:28:07.521Z,22.67
2018-06-09T19:30:35.831Z,22.55
2018-06-09T19:33:04.951Z,22.45
2018-06-09T19:35:34.146Z,22.36
2018-06-09T19:38:03.338Z,22.30
2018-06-09T19:40:31.654Z,22.25
2018-06-09T19:42:59.965Z,22.17
2018-06-09T19:45:28.283Z,22.12
2018-06-09T19:47:56.597Z,22.01
2018-06-09T19:50:25.793Z,21.90
2018-06-09T19:52:54.123Z,21.88
2018-06-09T19:55:22.445Z,21.83
2018-06-09T19:57:50.762Z,21.77
2018-06-09T20:00:19.997Z,21.76
2018-06-09T20:02:48.401Z,21.68
2018-06-09T20:05:16.758Z,21.62
2018-06-09T20:07:45.061Z,21.63
2018-06-09T20:10:13.381Z,21.56
2018-06-09T20:12:41.691Z,21.57
2018-06-09T20:15:10.054Z,21.53
2018-06-09T20:17:38.384Z,21.59
2018-06-09T20:20:06.702Z,21.51
2018-06-09T20:22:35.017Z,21.46
2018-06-09T20:25:03.381Z,21.36
2018-06-09T20:27:31.746Z,21.32
2018-06-09T20:30:00.071Z,21.21
2018-06-09T20:32:28.416Z,21.11
2018-06-09T20:34:56.753Z,21.02
2018-06-09T20:37:25.115Z,21.00
2018-06-09T20:39:53.449Z,20.97
2018-06-09T20:42:22.689Z,20.92
2018-06-09T20:44:51.017Z,20.89
2018-06-09T20:47:20.240Z,20.89
2018-06-09T20:49:49.425Z,20.94
2018-06-09T20:52:18.658Z,21.01
2018-06-09T20:54:47.861Z,21.00
2018-06-09T20:57:17.173Z,21.06
2018-06-09T20:59:46.426Z,21.17
2018-06-09T21:02:15.614Z,21.11
2018-06-09T21:04:44.797Z,21.11
2018-06-09T21:07:13.153Z,21.07
2018-06-09T21:09:41.471Z,20.99
2018-06-09T21:12:10.826Z,20.91
2018-06-09T21:14:40.054Z,20.85
2018-06-09T21:17:09.284Z,20.81
2018-06-09T21:19:38.494Z,20.78
2018-06-09T21:22:06.800Z,20.78
2018-06-09T21:24:36.001Z,20.73
2018-06-09T21:27:09.521Z,20.74
2018-06-09T21:29:43.944Z,20.59
2018-06-09T21:32:16.521Z,20.48
2018-06-09T21:35:01.305Z,20.42
2018-06-09T21:37:35.621Z,20.35
2018-06-09T21:40:09.341Z,20.31
2018-06-09T21:42:41.853Z,20.27
2018-06-09T21:45:11.757Z,20.23
2018-06-09T21:47:40.953Z,20.18
2018-06-09T21:50:09.260Z,20.18
2018-06-09T21:52:37.625Z,20.18
2018-06-09T21:55:06.802Z,20.17
2018-06-09T21:57:35.111Z,20.21
2018-06-09T22:00:05.981Z,20.18
2018-06-09T22:02:35.408Z,20.17
2018-06-09T22:05:03.770Z,20.17
2018-06-09T22:07:32.084Z,20.10
2018-06-09T22:10:01.394Z,20.05
2018-06-09T22:12:29.761Z,20.10
2018-06-09T22:14:59.009Z,20.12
2018-06-09T22:17:28.314Z,20.10
2018-06-09T22:19:57.536Z,20.01
2018-06-09T22:22:25.881Z,19.97
2018-06-09T22:24:54.250Z,19.95
2018-06-09T22:27:23.448Z,19.83
2018-06-09T22:29:51.771Z,19.74
2018-06-09T22:32:20.246Z,19.73
2018-06-09T22:34:48.556Z,19.69
2018-06-09T22:37:16.873Z,19.62
2018-06-09T22:39:45.189Z,19.62
2018-06-09T22:42:13.499Z,19.64
2018-06-09T22:44:41.810Z,19.65
2018-06-09T22:47:10.139Z,19.57
2018-06-09T22:49:38.453Z,19.53
2018-06-09T22:52:06.764Z,19.41
2018-06-09T22:54:36.090Z,19.35
2018-06-09T22:57:04.397Z,19.29
2018-06-09T22:59:33.637Z,19.31
2018-06-09T23:02:01.951Z,19.29
2018-06-09T23:04:30.249Z,19.23
2018-06-09T23:06:58.558Z,19.23
2018-06-09T23:09:26.874Z,19.26
2018-06-09T23:11:55.212Z,19.34
2018-06-09T23:14:23.525Z,19.42
2018-06-09T23:16:51.844Z,19.31
2018-06-09T23:19:20.160Z,19.32
2018-06-09T23:21:48.473Z,19.33
2018-06-09T23:24:16.776Z,19.38
2018-06-09T23:26:45.992Z,19.36
2018-06-09T23:29:14.298Z,19.35
2018-06-09T23:31:42.613Z,19.32
2018-06-09T23:34:10.917Z,19.21
2018-06-09T23:36:39.225Z,19.08
2018-06-09T23:39:07.811Z,19.04
2018-06-09T23:41:36.136Z,19.05
2018-06-09T23:44:04.449Z,19.04
2018-06-09T23:46:32.837Z,18.92
2018-06-09T23:49:01.113Z,18.82
2018-06-09T23:51:29.477Z,18.74
2018-06-09T23:53:57.792Z,18.69
2018-06-09T23:56:27.104Z,18.66
2018-06-09T23:58:55.427Z,18.60
